createdAt,value
2023-02-17T00:01:22.794Z,93.78
2023-02-17T00:03:50.831Z,94.13
2023-02-17T00:06:21.040Z,90.47
2023-02-17T00:08:49.223Z,90.47
2023-02-17T00:11:17.929Z,91.82
2023-02-17T00:13:45.681Z,87.45
2023-02-17T00:16:20.264Z,94.43
2023-02-17T00:18:58.440Z,101.63
2023-02-17T00:21:28.501Z,99.95
2023-02-17T00:23:57.815Z,98.25
2023-02-17T00:26:25.057Z,93.82
2023-02-17T00:28:52.316Z,75.78
2023-02-17T00:31:22.273Z,78.47
2023-02-17T00:33:50.215Z,78.40
2023-02-17T00:36:19.500Z,77.85
2023-02-17T00:38:48.302Z,82.47
2023-02-17T00:41:17.234Z,82.10
2023-02-17T00:43:44.854Z,86.40
2023-02-17T00:46:12.248Z,88.75
2023-02-17T00:48:40.196Z,92.95
2023-02-17T00:51:07.544Z,91.13
2023-02-17T00:53:35.733Z,90.13
2023-02-17T00:56:04.085Z,85.75
2023-02-17T00:58:31.519Z,94.03
2023-02-17T01:00:59.697Z,86.90
2023-02-17T01:03:27.619Z,106.75
2023-02-17T01:05:55.747Z,95.13
2023-02-17T01:08:24.339Z,90.75
2023-02-17T01:10:52.926Z,89.18
2023-02-17T01:13:20.525Z,90.10
2023-02-17T01:15:52.225Z,85.90
2023-02-17T01:18:23.658Z,88.15
2023-02-17T01:20:51.680Z,91.25
2023-02-17T01:23:19.385Z,85.45
2023-02-17T01:25:47.886Z,83.05
2023-02-17T01:28:19.929Z,79.10
2023-02-17T01:30:48.267Z,77.95
2023-02-17T01:33:15.633Z,80.57
2023-02-17T01:35:42.975Z,79.50
2023-02-17T01:38:13.017Z,77.72
2023-02-17T01:40:48.125Z,79.65
2023-02-17T01:43:18.568Z,86.32
2023-02-17T01:46:07.553Z,80.57
2023-02-17T01:48:47.255Z,77.50
2023-02-17T01:51:21.733Z,78.25
2023-02-17T01:56:19.407Z,75.10
2023-02-17T01:59:01.286Z,82.25
2023-02-17T02:01:29.752Z,77.72
2023-02-17T02:04:00.639Z,78.05
2023-02-17T02:06:30.572Z,83.95
2023-02-17T02:09:14.917Z,89.47
2023-02-17T02:11:42.718Z,91.07
2023-02-17T02:14:11.490Z,89.50
2023-02-17T02:16:41.957Z,83.28
2023-02-17T02:19:40.334Z,85.40
2023-02-17T02:23:12.056Z,85.05
2023-02-17T02:25:50.963Z,75.32
2023-02-17T02:28:37.414Z,79.15
2023-02-17T02:31:35.189Z,77.53
2023-02-17T02:34:23.534Z,79.00
2023-02-17T02:36:58.399Z,78.50
2023-02-17T02:39:29.197Z,79.85
2023-02-17T02:42:01.727Z,75.85
2023-02-17T02:44:29.005Z,78.93
2023-02-17T02:47:05.828Z,78.45
2023-02-17T02:49:35.587Z,79.40
2023-02-17T02:52:25.810Z,82.72
2023-02-17T02:55:14.850Z,81.35
2023-02-17T02:58:01.433Z,83.10
2023-02-17T03:00:39.092Z,80.75
2023-02-17T03:03:16.249Z,83.40
2023-02-17T03:06:08.175Z,84.90
2023-02-17T03:08:44.136Z,79.75
2023-02-17T03:11:15.040Z,81.60
2023-02-17T03:13:42.700Z,77.50
2023-02-17T03:16:14.836Z,86.00
2023-02-17T03:18:42.549Z,83.85
2023-02-17T03:21:15.654Z,83.70
2023-02-17T03:23:43.720Z,86.00
2023-02-17T03:26:10.987Z,83.55
2023-02-17T03:28:38.224Z,76.10
2023-02-17T03:31:05.697Z,73.75
2023-02-17T03:33:32.950Z,79.95
2023-02-17T03:36:00.182Z,81.05
2023-02-17T03:38:27.370Z,84.75
2023-02-17T03:40:54.745Z,77.45
2023-02-17T03:43:21.898Z,72.63
2023-02-17T03:45:49.303Z,69.03
2023-02-17T03:48:16.533Z,76.65
2023-02-17T03:50:43.968Z,76.78
2023-02-17T03:53:12.006Z,77.88
2023-02-17T03:55:39.363Z,73.78
2023-02-17T03:58:06.521Z,74.43
2023-02-17T04:00:33.819Z,74.90
2023-02-17T04:03:01.045Z,69.63
2023-02-17T04:05:28.372Z,61.35
2023-02-17T04:07:55.802Z,63.00
2023-02-17T04:10:23.197Z,68.57
2023-02-17T04:12:50.385Z,69.18
2023-02-17T04:15:17.622Z,73.97
2023-02-17T04:17:44.893Z,74.13
2023-02-17T04:20:12.680Z,76.93
2023-02-17T04:22:39.893Z,77.75
2023-02-17T04:25:07.327Z,80.88
2023-02-17T04:27:34.617Z,84.00
2023-02-17T04:30:02.095Z,87.57
2023-02-17T04:32:30.522Z,86.15
2023-02-17T04:34:57.839Z,81.97
2023-02-17T04:37:25.269Z,76.65
2023-02-17T04:39:52.461Z,77.82
2023-02-17T04:42:19.709Z,80.20
2023-02-17T04:44:47.048Z,79.07
2023-02-17T04:47:14.341Z,82.65
2023-02-17T04:49:41.556Z,80.28
2023-02-17T04:52:08.821Z,78.78
2023-02-17T04:54:36.186Z,76.78
2023-02-17T04:57:03.400Z,76.82
2023-02-17T04:59:30.610Z,74.35
2023-02-17T05:01:57.835Z,75.28
2023-02-17T05:04:25.068Z,93.43
2023-02-17T05:06:52.401Z,123.80
2023-02-17T05:09:19.689Z,118.65
2023-02-17T05:11:46.902Z,94.28
2023-02-17T05:14:14.138Z,91.93
2023-02-17T05:16:41.509Z,80.13
2023-02-17T05:19:08.858Z,71.95
2023-02-17T05:21:36.208Z,75.00
2023-02-17T05:24:03.569Z,74.35
2023-02-17T05:26:30.994Z,73.50
2023-02-17T05:28:58.286Z,72.18
2023-02-17T05:31:25.467Z,74.72
2023-02-17T05:33:54.786Z,74.50
2023-02-17T05:36:22.301Z,73.07
2023-02-17T05:38:51.324Z,73.10
2023-02-17T05:41:19.809Z,72.22
2023-02-17T05:43:47.534Z,71.90
2023-02-17T05:46:15.411Z,72.75
2023-02-17T05:48:44.294Z,72.00
2023-02-17T05:51:13.879Z,73.97
2023-02-17T05:53:41.448Z,73.25
2023-02-17T05:56:10.017Z,72.43
2023-02-17T05:58:37.668Z,75.68
2023-02-17T06:01:09.979Z,77.32
2023-02-17T06:03:37.704Z,74.53
2023-02-17T06:06:06.447Z,73.68
2023-02-17T06:08:34.794Z,73.78
2023-02-17T06:11:02.371Z,76.28
2023-02-17T06:13:29.627Z,76.20
2023-02-17T06:15:59.632Z,75.40
2023-02-17T06:18:29.750Z,76.20
2023-02-17T06:20:57.996Z,77.63
2023-02-17T06:23:26.454Z,74.85
2023-02-17T06:25:54.513Z,75.25
2023-02-17T06:28:21.796Z,74.35
2023-02-17T06:30:49.076Z,73.43
2023-02-17T06:33:16.376Z,73.47
2023-02-17T06:35:47.727Z,73.45
2023-02-17T06:38:14.950Z,73.20
2023-02-17T06:40:42.458Z,80.53
2023-02-17T06:43:09.754Z,81.15
2023-02-17T06:45:37.130Z,88.55
2023-02-17T06:48:04.563Z,86.88
2023-02-17T06:50:32.019Z,82.82
2023-02-17T06:52:59.285Z,82.55
2023-02-17T06:55:26.617Z,84.47
2023-02-17T06:57:53.939Z,77.32
2023-02-17T07:00:22.204Z,69.75
2023-02-17T07:02:49.648Z,75.13
2023-02-17T07:05:17.092Z,75.55
2023-02-17T07:07:44.301Z,76.75
2023-02-17T07:10:11.932Z,76.47
2023-02-17T07:12:39.724Z,76.57
2023-02-17T07:15:09.440Z,76.25
2023-02-17T07:17:39.274Z,74.20
2023-02-17T07:20:07.252Z,72.72
2023-02-17T07:22:34.458Z,76.82
2023-02-17T07:25:01.735Z,78.10
2023-02-17T07:27:31.734Z,84.38
2023-02-17T07:29:59.228Z,87.95
2023-02-17T07:32:26.472Z,92.13
2023-02-17T07:34:53.758Z,92.80
2023-02-17T07:37:21.934Z,88.50
2023-02-17T07:39:49.394Z,89.75
2023-02-17T07:42:16.590Z,89.32
2023-02-17T07:44:45.802Z,89.38
2023-02-17T07:47:13.071Z,88.70
2023-02-17T07:49:40.372Z,82.53
2023-02-17T07:52:07.566Z,78.80
2023-02-17T07:54:34.819Z,78.15
2023-02-17T07:57:01.997Z,84.78
2023-02-17T07:59:29.299Z,83.25
2023-02-17T08:01:56.612Z,87.30
2023-02-17T08:04:24.124Z,85.53
2023-02-17T08:06:51.438Z,88.97
2023-02-17T08:09:37.260Z,84.13
2023-02-17T08:12:23.221Z,84.97
2023-02-17T08:14:50.493Z,88.95
2023-02-17T08:17:17.821Z,88.78
2023-02-17T08:19:49.342Z,87.13
2023-02-17T08:22:17.697Z,83.35
2023-02-17T08:24:45.039Z,83.75
2023-02-17T08:27:13.886Z,85.63
2023-02-17T08:29:41.727Z,80.22
2023-02-17T08:32:09.639Z,81.97
2023-02-17T08:34:37.077Z,73.25
2023-02-17T08:37:06.523Z,73.68
2023-02-17T08:39:35.286Z,71.15
2023-02-17T08:42:03.368Z,71.15
2023-02-17T08:44:30.730Z,69.22
2023-02-17T08:46:58.004Z,68.78
2023-02-17T08:49:27.071Z,66.45
2023-02-17T08:51:54.587Z,63.10
2023-02-17T08:54:22.048Z,61.15
2023-02-17T08:56:49.473Z,58.72
2023-02-17T08:59:17.149Z,59.80
2023-02-17T09:01:44.570Z,60.13
2023-02-17T09:04:14.551Z,58.28
2023-02-17T09:06:47.029Z,55.75
2023-02-17T09:09:18.297Z,51.97
2023-02-17T09:11:46.657Z,54.47
2023-02-17T09:14:14.129Z,51.22
2023-02-17T09:16:41.843Z,46.33
2023-02-17T09:19:09.419Z,40.45
2023-02-17T09:21:36.915Z,35.92
2023-02-17T09:24:04.721Z,40.45
2023-02-17T09:26:32.071Z,41.45
2023-02-17T09:29:04.043Z,45.22
2023-02-17T09:31:32.058Z,44.13
2023-02-17T09:33:59.646Z,44.17
2023-02-17T09:36:33.323Z,47.53
2023-02-17T09:39:01.853Z,43.55
2023-02-17T09:41:43.183Z,50.00
2023-02-17T09:44:43.064Z,40.67
2023-02-17T09:47:22.416Z,32.47
2023-02-17T09:50:01.269Z,32.40
2023-02-17T09:52:41.397Z,30.38
2023-02-17T09:55:20.055Z,29.13
2023-02-17T09:57:55.477Z,31.20
2023-02-17T10:00:41.457Z,28.92
2023-02-17T10:03:31.327Z,30.63
2023-02-17T10:06:25.101Z,32.17
2023-02-17T10:09:19.923Z,30.65
2023-02-17T10:12:05.690Z,33.35
2023-02-17T10:14:48.301Z,33.70
2023-02-17T10:17:37.914Z,34.47
2023-02-17T10:20:24.673Z,34.83
2023-02-17T10:22:59.903Z,32.78
2023-02-17T10:25:55.146Z,34.05
2023-02-17T10:31:19.788Z,32.55
2023-02-17T10:34:04.156Z,32.28
2023-02-17T10:36:34.164Z,32.65
2023-02-17T10:39:20.228Z,37.30
2023-02-17T10:41:51.363Z,35.53
2023-02-17T10:44:23.396Z,38.72
2023-02-17T10:46:52.573Z,40.88
2023-02-17T10:49:34.682Z,40.67
2023-02-17T10:52:23.798Z,36.78
2023-02-17T10:54:54.156Z,35.25
2023-02-17T10:57:25.610Z,36.35
2023-02-17T10:59:54.252Z,37.05
2023-02-17T11:02:23.231Z,38.22
2023-02-17T11:04:55.042Z,40.08
2023-02-17T11:07:42.417Z,39.38
2023-02-17T11:10:34.064Z,37.33
2023-02-17T11:13:03.660Z,40.10
2023-02-17T11:15:44.754Z,38.92
2023-02-17T11:18:20.433Z,37.17
2023-02-17T11:20:48.125Z,34.40
2023-02-17T11:23:15.771Z,35.10
2023-02-17T11:25:54.976Z,33.45
2023-02-17T11:28:26.650Z,32.70
2023-02-17T11:30:58.023Z,33.67
2023-02-17T11:33:39.072Z,31.90
2023-02-17T11:36:10.763Z,34.40
2023-02-17T11:38:42.957Z,29.63
2023-02-17T11:41:11.288Z,24.98
2023-02-17T11:43:40.058Z,23.70
2023-02-17T11:46:36.615Z,24.85
2023-02-17T11:49:29.679Z,25.65
2023-02-17T11:52:12.347Z,23.08
2023-02-17T11:54:58.298Z,23.73
2023-02-17T11:57:45.309Z,21.80
2023-02-17T12:00:23.503Z,22.00
2023-02-17T12:03:30.087Z,22.13
2023-02-17T12:06:26.458Z,22.13
2023-02-17T12:09:13.330Z,20.45
2023-02-17T12:11:49.983Z,21.58
2023-02-17T12:14:41.008Z,20.20
2023-02-17T12:17:18.794Z,20.40
2023-02-17T12:19:57.786Z,19.58
2023-02-17T12:22:36.033Z,19.70
2023-02-17T12:25:31.037Z,18.13
2023-02-17T12:28:17.083Z,15.73
2023-02-17T12:30:47.439Z,17.85
2023-02-17T12:33:36.658Z,14.88
2023-02-17T12:36:11.304Z,15.10
2023-02-17T12:38:52.317Z,14.05
2023-02-17T12:41:28.542Z,12.93
2023-02-17T12:44:00.803Z,11.18
2023-02-17T12:46:46.450Z,10.02
2023-02-17T12:49:27.565Z,8.60
2023-02-17T12:52:00.519Z,9.35
2023-02-17T12:54:34.383Z,9.40
2023-02-17T12:57:10.851Z,8.65
2023-02-17T12:59:40.667Z,9.35
2023-02-17T13:02:20.995Z,8.68
2023-02-17T13:04:51.779Z,8.63
2023-02-17T13:07:45.634Z,8.63
2023-02-17T13:10:40.636Z,8.75
2023-02-17T13:13:14.351Z,7.53
2023-02-17T13:15:44.794Z,7.57
2023-02-17T13:18:27.041Z,8.00
2023-02-17T13:21:20.629Z,7.93
2023-02-17T13:24:30.664Z,8.52
2023-02-17T13:27:08.876Z,7.03
2023-02-17T13:29:36.736Z,7.70
2023-02-17T13:32:13.051Z,7.30
2023-02-17T13:34:43.501Z,7.35
2023-02-17T13:37:32.424Z,6.85
2023-02-17T13:40:01.872Z,7.25
2023-02-17T13:42:38.042Z,7.22
2023-02-17T13:45:17.029Z,7.18
2023-02-17T13:47:46.886Z,6.93
2023-02-17T13:50:32.677Z,7.00
2023-02-17T13:53:01.445Z,7.28
2023-02-17T13:55:28.788Z,6.60
2023-02-17T13:58:01.127Z,7.10
2023-02-17T14:00:32.757Z,7.35
2023-02-17T14:03:39.326Z,7.38
2023-02-17T14:06:11.237Z,7.32
2023-02-17T14:08:40.884Z,7.53
2023-02-17T14:11:12.911Z,7.43
2023-02-17T14:13:45.214Z,7.40
2023-02-17T14:16:35.411Z,7.22
2023-02-17T14:19:18.245Z,6.95
2023-02-17T14:22:01.471Z,7.95
2023-02-17T14:24:35.381Z,7.18
2023-02-17T14:27:14.238Z,7.80
2023-02-17T14:29:43.043Z,7.63
2023-02-17T14:32:32.079Z,7.70
2023-02-17T14:35:10.969Z,8.35
2023-02-17T14:37:40.110Z,8.27
2023-02-17T14:40:17.092Z,8.35
2023-02-17T14:42:45.746Z,7.47
2023-02-17T14:45:15.383Z,7.68
2023-02-17T14:47:43.255Z,8.07
2023-02-17T14:50:11.242Z,8.38
2023-02-17T14:52:53.082Z,8.32
2023-02-17T14:55:35.186Z,8.55
2023-02-17T14:58:02.833Z,7.88
2023-02-17T15:00:30.476Z,8.02
2023-02-17T15:02:57.880Z,8.88
2023-02-17T15:05:25.533Z,8.48
2023-02-17T15:07:52.709Z,8.18
2023-02-17T15:10:28.478Z,8.75
2023-02-17T15:12:57.114Z,8.60
2023-02-17T15:15:24.356Z,9.18
2023-02-17T15:17:51.641Z,9.20
2023-02-17T15:20:19.101Z,8.32
2023-02-17T15:22:47.027Z,9.15
2023-02-17T15:25:24.113Z,9.15
2023-02-17T15:27:51.696Z,9.32
2023-02-17T15:30:20.771Z,8.38
2023-02-17T15:32:48.547Z,8.88
2023-02-17T15:35:20.775Z,8.73
2023-02-17T15:37:48.777Z,9.07
2023-02-17T15:40:22.129Z,8.55
2023-02-17T15:43:03.618Z,9.10
2023-02-17T15:45:31.453Z,8.95
2023-02-17T15:48:07.244Z,9.35
2023-02-17T15:50:34.556Z,10.52
2023-02-17T15:53:01.897Z,13.98
2023-02-17T15:55:29.456Z,18.40
2023-02-17T15:57:59.443Z,15.52
2023-02-17T16:00:29.694Z,14.40
2023-02-17T16:02:57.170Z,13.07
2023-02-17T16:05:27.300Z,13.55
2023-02-17T16:07:55.215Z,12.82
2023-02-17T16:10:29.742Z,13.88
2023-02-17T16:15:26.784Z,13.70
2023-02-17T16:17:55.773Z,13.55
2023-02-17T16:20:29.559Z,14.55
2023-02-17T16:22:56.933Z,12.45
2023-02-17T16:25:24.567Z,12.93
2023-02-17T16:27:52.874Z,12.63
2023-02-17T16:30:35.941Z,14.30
2023-02-17T16:33:03.858Z,13.35
2023-02-17T16:35:32.816Z,13.65
2023-02-17T16:38:13.799Z,11.73
2023-02-17T16:40:47.410Z,13.95
2023-02-17T16:43:23.378Z,14.53
2023-02-17T16:45:59.877Z,17.63
2023-02-17T16:48:30.896Z,31.77
2023-02-17T16:50:58.354Z,20.13
2023-02-17T16:53:26.004Z,20.88
2023-02-17T16:55:55.310Z,23.63
2023-02-17T16:58:25.162Z,18.88
2023-02-17T17:00:54.577Z,18.30
2023-02-17T17:03:22.747Z,18.40
2023-02-17T17:05:52.441Z,16.75
2023-02-17T17:08:21.764Z,47.47
2023-02-17T17:10:49.659Z,45.08
2023-02-17T17:13:17.102Z,36.35
2023-02-17T17:15:45.897Z,31.48
2023-02-17T17:18:21.105Z,31.70
2023-02-17T17:20:49.195Z,23.80
2023-02-17T17:23:16.961Z,32.35
2023-02-17T17:25:47.018Z,27.58
2023-02-17T17:28:22.510Z,26.10
2023-02-17T17:30:49.918Z,25.02
2023-02-17T17:33:17.354Z,24.00
2023-02-17T17:35:44.636Z,31.70
2023-02-17T17:38:16.501Z,35.45
2023-02-17T17:40:53.436Z,31.30
2023-02-17T17:43:22.384Z,27.30
2023-02-17T17:45:50.837Z,26.23
2023-02-17T17:48:18.690Z,27.58
2023-02-17T17:50:46.593Z,32.10
2023-02-17T17:53:13.986Z,34.15
2023-02-17T17:55:41.188Z,32.20
2023-02-17T17:58:08.498Z,30.40
2023-02-17T18:00:35.732Z,33.53
2023-02-17T18:03:03.917Z,31.45
2023-02-17T18:05:31.294Z,26.70
2023-02-17T18:07:58.569Z,28.02
2023-02-17T18:10:25.945Z,26.95
2023-02-17T18:12:53.395Z,28.73
2023-02-17T18:15:21.227Z,28.63
2023-02-17T18:17:49.484Z,28.23
2023-02-17T18:20:17.078Z,25.38
2023-02-17T18:22:44.578Z,26.95
2023-02-17T18:25:12.129Z,26.00
2023-02-17T18:27:46.076Z,25.20
2023-02-17T18:30:17.436Z,27.15
2023-02-17T18:32:45.103Z,28.92
2023-02-17T18:35:13.077Z,30.40
2023-02-17T18:37:41.194Z,28.67
2023-02-17T18:40:13.807Z,29.60
2023-02-17T18:42:42.581Z,32.40
2023-02-17T18:45:10.498Z,42.50
2023-02-17T18:47:38.262Z,46.28
2023-02-17T18:50:08.324Z,54.80
2023-02-17T18:52:38.318Z,45.97
2023-02-17T18:55:06.793Z,44.78
2023-02-17T18:57:34.827Z,40.92
2023-02-17T19:00:02.447Z,31.20
2023-02-17T19:02:31.017Z,30.90
2023-02-17T19:04:58.373Z,41.25
2023-02-17T19:07:25.583Z,51.63
2023-02-17T19:09:54.555Z,64.85
2023-02-17T19:12:22.313Z,68.32
2023-02-17T19:14:53.261Z,45.63
2023-02-17T19:17:20.831Z,42.45
2023-02-17T19:19:48.473Z,39.47
2023-02-17T19:22:15.705Z,35.00
2023-02-17T19:24:43.638Z,36.65
2023-02-17T19:27:11.184Z,38.03
2023-02-17T19:29:38.409Z,29.98
2023-02-17T19:32:05.736Z,31.63
2023-02-17T19:34:32.985Z,32.85
2023-02-17T19:37:00.478Z,38.75
2023-02-17T19:39:27.767Z,39.60
2023-02-17T19:41:54.952Z,41.40
2023-02-17T19:44:22.932Z,40.22
2023-02-17T19:46:50.265Z,38.10
2023-02-17T19:49:17.513Z,35.70
2023-02-17T19:51:45.816Z,36.83
2023-02-17T19:54:13.063Z,37.20
2023-02-17T19:56:40.622Z,37.83
2023-02-17T19:59:08.308Z,35.08
2023-02-17T20:01:35.612Z,32.05
2023-02-17T20:04:05.035Z,33.90
2023-02-17T20:06:40.438Z,35.13
2023-02-17T20:09:11.220Z,34.58
2023-02-17T20:11:38.800Z,35.50
2023-02-17T20:14:06.422Z,39.13
2023-02-17T20:16:36.766Z,43.55
2023-02-17T20:19:05.619Z,46.08
2023-02-17T20:21:38.407Z,48.15
2023-02-17T20:24:06.768Z,49.15
2023-02-17T20:26:39.114Z,47.97
2023-02-17T20:29:06.660Z,51.80
2023-02-17T20:31:35.932Z,48.72
2023-02-17T20:34:05.509Z,47.20
2023-02-17T20:36:32.947Z,44.58
2023-02-17T20:39:00.454Z,38.58
2023-02-17T20:41:27.806Z,35.40
2023-02-17T20:43:55.004Z,37.08
2023-02-17T20:46:28.301Z,36.72
2023-02-17T20:48:56.404Z,34.75
2023-02-17T20:51:24.380Z,33.80
2023-02-17T20:53:52.222Z,35.92
2023-02-17T20:56:22.532Z,35.50
2023-02-17T20:58:51.865Z,39.58
2023-02-17T21:01:20.082Z,38.97
2023-02-17T21:03:47.288Z,36.08
2023-02-17T21:06:26.664Z,36.08
2023-02-17T21:09:03.419Z,33.35
2023-02-17T21:11:30.886Z,32.70
2023-02-17T21:13:58.045Z,28.58
2023-02-17T21:16:31.191Z,30.00
2023-02-17T21:19:00.042Z,34.00
2023-02-17T21:21:27.993Z,35.85
2023-02-17T21:23:56.308Z,37.20
2023-02-17T21:26:25.354Z,35.90
2023-02-17T21:28:52.644Z,45.55
2023-02-17T21:31:20.735Z,47.92
2023-02-17T21:33:48.239Z,39.30
2023-02-17T21:36:18.081Z,44.13
2023-02-17T21:38:46.589Z,52.83
2023-02-17T21:41:20.219Z,48.90
2023-02-17T21:44:06.677Z,41.28
2023-02-17T21:46:34.797Z,34.08
2023-02-17T21:49:02.326Z,33.92
2023-02-17T21:51:30.211Z,32.50
2023-02-17T21:53:59.294Z,30.58
2023-02-17T21:56:26.713Z,32.90
2023-02-17T21:58:56.529Z,33.92
2023-02-17T22:01:26.603Z,34.55
2023-02-17T22:03:54.852Z,34.58
2023-02-17T22:06:24.270Z,35.80
2023-02-17T22:08:51.867Z,37.92
2023-02-17T22:11:25.145Z,35.33
2023-02-17T22:13:58.337Z,34.80
2023-02-17T22:16:26.344Z,37.63
2023-02-17T22:18:53.534Z,33.38
2023-02-17T22:21:20.818Z,33.83
2023-02-17T22:23:48.184Z,31.52
2023-02-17T22:26:18.454Z,33.60
2023-02-17T22:28:46.029Z,34.13
2023-02-17T22:31:15.068Z,33.72
2023-02-17T22:33:43.090Z,31.40
2023-02-17T22:36:12.926Z,34.42
2023-02-17T22:38:44.114Z,31.58
2023-02-17T22:41:13.659Z,30.77
2023-02-17T22:43:42.412Z,30.58
2023-02-17T22:46:11.334Z,32.30
2023-02-17T22:48:39.322Z,31.70
2023-02-17T22:51:12.967Z,24.63
2023-02-17T22:53:40.581Z,27.53
2023-02-17T22:56:09.038Z,27.58
2023-02-17T22:58:37.035Z,29.85
2023-02-17T23:01:20.646Z,24.58
2023-02-17T23:03:52.383Z,26.80
2023-02-17T23:06:27.348Z,27.77
2023-02-17T23:08:55.530Z,26.40
2023-02-17T23:11:47.868Z,24.30
2023-02-17T23:14:18.046Z,25.48
2023-02-17T23:16:45.886Z,25.33
2023-02-17T23:19:15.980Z,24.50
2023-02-17T23:21:49.357Z,34.92
2023-02-17T23:24:18.159Z,23.73
2023-02-17T23:26:45.900Z,25.00
2023-02-17T23:29:13.481Z,24.55
2023-02-17T23:31:40.753Z,23.27
2023-02-17T23:34:08.433Z,24.33
2023-02-17T23:36:37.964Z,22.30
2023-02-17T23:39:05.205Z,22.73
2023-02-17T23:41:32.753Z,24.05
2023-02-17T23:43:59.984Z,21.48
2023-02-17T23:46:28.921Z,21.35
2023-02-17T23:48:56.613Z,21.88
2023-02-17T23:51:23.917Z,21.95
2023-02-17T23:53:51.233Z,19.23
2023-02-17T23:56:38.625Z,20.15
2023-02-17T23:59:06.176Z,20.13
